createdAt,value
2023-05-06T00:00:23.662Z,61.44
2023-05-06T00:01:46.525Z,61.51
2023-05-06T00:02:49.427Z,61.53
2023-05-06T00:03:52.455Z,61.48
2023-05-06T00:04:55.865Z,61.44
2023-05-06T00:05:58.838Z,61.43
2023-05-06T00:07:02.444Z,61.53
2023-05-06T00:08:06.095Z,61.65
2023-05-06T00:09:09.289Z,61.50
2023-05-06T00:10:12.652Z,61.64
2023-05-06T00:11:15.508Z,61.53
2023-05-06T00:12:18.411Z,61.46
2023-05-06T00:13:21.310Z,61.53
2023-05-06T00:14:24.319Z,61.38
2023-05-06T00:15:27.177Z,61.43
2023-05-06T00:16:30.049Z,61.38
2023-05-06T00:17:32.950Z,61.31
2023-05-06T00:18:35.985Z,61.30
2023-05-06T00:19:38.944Z,61.32
2023-05-06T00:20:42.877Z,61.47
2023-05-06T00:21:45.712Z,61.55
2023-05-06T00:22:48.601Z,61.46
2023-05-06T00:23:51.424Z,61.50
2023-05-06T00:24:54.309Z,61.65
2023-05-06T00:25:57.298Z,61.46
2023-05-06T00:27:00.189Z,61.56
2023-05-06T00:28:03.146Z,61.63
2023-05-06T00:29:06.106Z,61.64
2023-05-06T00:30:09.739Z,61.62
2023-05-06T00:31:12.586Z,61.51
2023-05-06T00:32:15.661Z,61.62
2023-05-06T00:33:18.556Z,61.54
2023-05-06T00:34:21.436Z,61.64
2023-05-06T00:35:24.396Z,61.60
2023-05-06T00:36:28.106Z,61.74
2023-05-06T00:37:31.010Z,61.57
2023-05-06T00:38:34.011Z,61.53
2023-05-06T00:39:37.167Z,61.68
2023-05-06T00:40:40.295Z,61.68
2023-05-06T00:41:43.253Z,61.64
2023-05-06T00:42:46.759Z,61.81
2023-05-06T00:43:49.662Z,61.87
2023-05-06T00:44:52.843Z,61.49
2023-05-06T00:45:55.893Z,61.68
2023-05-06T00:46:59.672Z,61.51
2023-05-06T00:48:07.637Z,61.65
2023-05-06T00:49:12.453Z,61.68
2023-05-06T00:50:15.475Z,61.58
2023-05-06T00:51:18.402Z,61.80
2023-05-06T00:52:21.556Z,61.65
2023-05-06T00:53:25.157Z,61.58
2023-05-06T00:54:29.897Z,61.56
2023-05-06T00:55:33.139Z,61.61
2023-05-06T00:56:36.181Z,61.70
2023-05-06T00:57:40.461Z,61.56
2023-05-06T00:58:44.475Z,61.51
2023-05-06T00:59:47.452Z,61.40
2023-05-06T01:00:52.337Z,61.42
2023-05-06T01:01:55.374Z,61.33
2023-05-06T01:02:58.282Z,61.32
2023-05-06T01:04:01.715Z,61.26
2023-05-06T01:05:05.534Z,61.18
2023-05-06T01:06:24.924Z,61.30
2023-05-06T01:07:44.840Z,61.25
2023-05-06T01:08:58.750Z,61.15
2023-05-06T01:10:28.969Z,61.03
2023-05-06T01:11:44.261Z,61.17
2023-05-06T01:13:09.908Z,61.19
2023-05-06T01:14:12.800Z,61.16
2023-05-06T01:15:21.824Z,61.15
2023-05-06T01:16:27.074Z,61.08
2023-05-06T01:17:31.914Z,61.01
2023-05-06T01:18:36.660Z,61.13
2023-05-06T01:19:49.006Z,61.13
2023-05-06T01:20:54.859Z,61.23
2023-05-06T01:22:01.390Z,60.93
2023-05-06T01:23:10.723Z,60.86
2023-05-06T01:24:13.576Z,60.76
2023-05-06T01:25:21.660Z,60.86
2023-05-06T01:26:25.058Z,60.75
2023-05-06T01:27:28.391Z,60.74
2023-05-06T01:28:31.214Z,60.82
2023-05-06T01:29:37.011Z,60.67
2023-05-06T01:31:01.073Z,60.71
2023-05-06T01:32:14.496Z,60.65
2023-05-06T01:33:27.862Z,60.61
2023-05-06T01:34:56.790Z,60.68
2023-05-06T01:36:05.886Z,60.58
2023-05-06T01:37:22.184Z,60.62
2023-05-06T01:38:34.896Z,60.57
2023-05-06T01:39:41.741Z,60.70
2023-05-06T01:40:54.366Z,60.64
2023-05-06T01:41:59.493Z,60.63
2023-05-06T01:43:06.170Z,60.75
2023-05-06T01:44:10.115Z,60.75
2023-05-06T01:45:15.092Z,60.62
2023-05-06T01:46:22.709Z,60.68
2023-05-06T01:47:27.324Z,60.52
2023-05-06T01:48:35.602Z,60.70
2023-05-06T01:49:38.797Z,60.51
2023-05-06T01:50:42.141Z,60.59
2023-05-06T01:51:49.180Z,60.57
2023-05-06T01:53:02.718Z,60.61
2023-05-06T01:54:05.883Z,60.51
2023-05-06T01:55:09.349Z,60.48
2023-05-06T01:56:13.332Z,60.42
2023-05-06T01:57:16.276Z,60.39
2023-05-06T01:58:19.327Z,60.47
2023-05-06T01:59:22.238Z,60.24
2023-05-06T02:00:26.754Z,60.26
2023-05-06T02:01:29.845Z,60.24
2023-05-06T02:02:36.036Z,60.27
2023-05-06T02:03:39.523Z,60.25
2023-05-06T02:04:42.790Z,60.20
2023-05-06T02:05:45.805Z,60.29
2023-05-06T02:06:48.711Z,60.19
2023-05-06T02:07:53.104Z,60.28
2023-05-06T02:09:00.174Z,60.18
2023-05-06T02:10:03.677Z,59.96
2023-05-06T02:11:07.837Z,60.00
2023-05-06T02:12:11.923Z,60.03
2023-05-06T02:13:14.868Z,60.12
2023-05-06T02:14:17.879Z,60.05
2023-05-06T02:15:20.882Z,60.12
2023-05-06T02:16:28.126Z,60.04
2023-05-06T02:17:30.972Z,60.27
2023-05-06T02:18:33.881Z,60.22
2023-05-06T02:19:36.756Z,60.03
2023-05-06T02:20:39.632Z,60.04
2023-05-06T02:21:42.668Z,60.16
2023-05-06T02:22:45.612Z,60.14
2023-05-06T02:23:48.450Z,60.27
2023-05-06T02:24:51.654Z,60.09
2023-05-06T02:25:55.111Z,60.23
2023-05-06T02:26:57.978Z,60.06
2023-05-06T02:28:00.816Z,60.14
2023-05-06T02:29:04.006Z,60.05
2023-05-06T02:30:07.505Z,60.18
2023-05-06T02:31:14.950Z,60.07
2023-05-06T02:32:17.942Z,60.12
2023-05-06T02:33:21.914Z,60.22
2023-05-06T02:34:25.254Z,60.05
2023-05-06T02:35:28.095Z,60.05
2023-05-06T02:36:30.999Z,60.22
2023-05-06T02:37:33.911Z,60.24
2023-05-06T02:38:37.672Z,60.15
2023-05-06T02:39:40.624Z,60.34
2023-05-06T02:40:43.538Z,60.25
2023-05-06T02:41:46.400Z,60.24
2023-05-06T02:42:49.389Z,60.18
2023-05-06T02:43:52.312Z,60.12
2023-05-06T02:44:55.176Z,60.12
2023-05-06T02:45:58.043Z,60.16
2023-05-06T02:47:01.876Z,60.11
2023-05-06T02:48:04.967Z,59.95
2023-05-06T02:49:07.987Z,60.25
2023-05-06T02:50:11.100Z,60.21
2023-05-06T02:51:14.047Z,60.23
2023-05-06T02:52:17.000Z,60.22
2023-05-06T02:53:19.858Z,60.09
2023-05-06T02:54:22.830Z,60.07
2023-05-06T02:55:25.779Z,60.08
2023-05-06T02:56:28.686Z,60.20
2023-05-06T02:57:31.541Z,60.19
2023-05-06T02:58:34.464Z,60.27
2023-05-06T02:59:37.349Z,60.34
2023-05-06T03:00:40.158Z,60.23
2023-05-06T03:01:43.018Z,60.22
2023-05-06T03:02:46.054Z,60.11
2023-05-06T03:03:48.969Z,60.25
2023-05-06T03:04:52.048Z,60.28
2023-05-06T03:05:55.007Z,60.31
2023-05-06T03:06:57.918Z,60.44
2023-05-06T03:08:01.110Z,60.53
2023-05-06T03:09:05.113Z,60.52
2023-05-06T03:10:08.356Z,60.61
2023-05-06T03:11:12.553Z,60.50
2023-05-06T03:12:15.579Z,60.69
2023-05-06T03:13:18.633Z,60.61
2023-05-06T03:14:21.585Z,60.51
2023-05-06T03:15:25.033Z,60.56
2023-05-06T03:16:28.351Z,60.46
2023-05-06T03:17:33.487Z,60.31
2023-05-06T03:18:36.799Z,60.58
2023-05-06T03:19:39.856Z,60.49
2023-05-06T03:20:43.580Z,60.68
2023-05-06T03:21:46.504Z,60.57
2023-05-06T03:22:50.176Z,60.63
2023-05-06T03:23:53.984Z,60.47
2023-05-06T03:24:57.734Z,60.65
2023-05-06T03:26:03.474Z,60.67
2023-05-06T03:27:06.732Z,60.63
2023-05-06T03:28:11.746Z,60.68
2023-05-06T03:29:14.796Z,60.68
2023-05-06T03:30:18.224Z,60.75
2023-05-06T03:31:22.237Z,60.87
2023-05-06T03:32:25.330Z,60.91
2023-05-06T03:33:28.683Z,60.71
2023-05-06T03:34:31.634Z,60.75
2023-05-06T03:35:34.942Z,60.72
2023-05-06T03:36:38.291Z,60.80
2023-05-06T03:37:41.268Z,60.71
2023-05-06T03:38:45.026Z,60.79
2023-05-06T03:39:48.859Z,60.82
2023-05-06T03:40:51.882Z,60.84
2023-05-06T03:41:54.754Z,60.90
2023-05-06T03:42:57.629Z,60.84
2023-05-06T03:44:00.505Z,60.69
2023-05-06T03:45:05.124Z,60.76
2023-05-06T03:46:08.397Z,60.76
2023-05-06T03:47:11.797Z,60.96
2023-05-06T03:48:14.992Z,60.95
2023-05-06T03:49:20.701Z,61.10
2023-05-06T03:50:23.928Z,61.02
2023-05-06T03:51:29.213Z,61.06
2023-05-06T03:52:32.189Z,61.23
2023-05-06T03:53:35.794Z,61.11
2023-05-06T03:54:39.452Z,61.12
2023-05-06T03:55:43.632Z,60.87
2023-05-06T03:56:47.171Z,61.05
2023-05-06T03:57:51.059Z,61.14
2023-05-06T03:58:55.138Z,61.03
2023-05-06T03:59:59.032Z,61.09
2023-05-06T04:01:03.016Z,60.93
2023-05-06T04:02:06.013Z,61.19
2023-05-06T04:03:10.210Z,61.11
2023-05-06T04:04:21.749Z,61.15
2023-05-06T04:05:24.770Z,61.05
2023-05-06T04:06:27.631Z,61.10
2023-05-06T04:07:31.144Z,61.12
2023-05-06T04:08:34.037Z,61.17
2023-05-06T04:09:37.614Z,61.17
2023-05-06T04:10:42.766Z,61.12
2023-05-06T04:11:52.054Z,61.00
2023-05-06T04:12:55.278Z,61.10
2023-05-06T04:14:01.852Z,61.15
2023-05-06T04:15:06.165Z,61.21
2023-05-06T04:16:09.885Z,61.25
2023-05-06T04:17:16.198Z,61.31
2023-05-06T04:18:20.007Z,61.21
2023-05-06T04:19:30.228Z,61.17
2023-05-06T04:20:33.178Z,61.22
2023-05-06T04:21:36.172Z,61.28
2023-05-06T04:22:42.172Z,61.03
2023-05-06T04:23:45.243Z,61.13
2023-05-06T04:24:50.764Z,61.26
2023-05-06T04:25:53.637Z,61.26
2023-05-06T04:26:57.898Z,61.31
2023-05-06T04:28:01.200Z,61.28
2023-05-06T04:29:04.891Z,61.34
2023-05-06T04:30:10.382Z,61.50
2023-05-06T04:31:14.843Z,61.29
2023-05-06T04:32:21.019Z,61.17
2023-05-06T04:33:24.497Z,61.32
2023-05-06T04:34:28.974Z,61.47
2023-05-06T04:35:33.980Z,61.40
2023-05-06T04:36:38.357Z,61.31
2023-05-06T04:37:52.078Z,61.26
2023-05-06T04:39:03.659Z,61.52
2023-05-06T04:40:07.310Z,61.42
2023-05-06T04:41:12.066Z,61.43
2023-05-06T04:42:16.264Z,61.61
2023-05-06T04:43:28.316Z,61.55
2023-05-06T04:44:35.215Z,61.45
2023-05-06T04:45:40.264Z,61.48
2023-05-06T04:46:43.335Z,61.55
2023-05-06T04:47:46.787Z,61.49
2023-05-06T04:48:50.172Z,61.48
2023-05-06T04:49:54.138Z,61.48
2023-05-06T04:50:58.312Z,61.56
2023-05-06T04:52:02.031Z,61.49
2023-05-06T04:53:05.295Z,61.51
2023-05-06T04:54:08.941Z,61.51
2023-05-06T04:55:12.216Z,61.50
2023-05-06T04:56:17.320Z,61.35
2023-05-06T04:57:21.211Z,61.38
2023-05-06T04:58:24.671Z,61.44
2023-05-06T04:59:28.117Z,61.51
2023-05-06T05:00:31.060Z,61.50
2023-05-06T05:01:34.161Z,61.57
2023-05-06T05:02:37.700Z,61.52
2023-05-06T05:03:41.375Z,61.50
2023-05-06T05:04:44.777Z,61.49
2023-05-06T05:05:47.696Z,61.36
2023-05-06T05:06:52.795Z,61.32
2023-05-06T05:07:55.989Z,61.39
2023-05-06T05:08:59.621Z,61.21
2023-05-06T05:10:02.958Z,61.25
2023-05-06T05:11:07.207Z,61.22
2023-05-06T05:12:10.492Z,61.32
2023-05-06T05:13:16.809Z,61.43
2023-05-06T05:14:20.352Z,61.49
2023-05-06T05:15:23.515Z,61.44
2023-05-06T05:16:26.548Z,61.42
2023-05-06T05:17:30.640Z,61.48
2023-05-06T05:18:33.960Z,61.37
2023-05-06T05:19:41.207Z,61.30
2023-05-06T05:20:44.637Z,61.39
2023-05-06T05:21:48.894Z,61.38
2023-05-06T05:22:51.818Z,61.28
2023-05-06T05:23:54.781Z,61.32
2023-05-06T05:24:58.114Z,61.31
2023-05-06T05:26:01.941Z,61.36
2023-05-06T05:27:04.847Z,61.23
2023-05-06T05:28:09.181Z,61.31
2023-05-06T05:29:12.433Z,61.33
2023-05-06T05:30:15.531Z,61.39
2023-05-06T05:31:19.040Z,61.45
2023-05-06T05:32:22.310Z,61.58
2023-05-06T05:33:25.929Z,61.62
2023-05-06T05:34:28.873Z,61.39
2023-05-06T05:35:31.964Z,61.44
2023-05-06T05:36:35.056Z,61.55
2023-05-06T05:37:39.830Z,61.52
2023-05-06T05:38:43.298Z,61.62
2023-05-06T05:39:46.465Z,61.50
2023-05-06T05:40:49.958Z,61.36
2023-05-06T05:41:53.229Z,61.47
2023-05-06T05:42:56.883Z,61.58
2023-05-06T05:44:04.967Z,61.69
2023-05-06T05:45:08.599Z,61.46
2023-05-06T05:46:11.989Z,61.63
2023-05-06T05:47:16.063Z,61.69
2023-05-06T05:48:19.269Z,61.74
2023-05-06T05:49:22.452Z,61.59
2023-05-06T05:50:26.446Z,61.49
2023-05-06T05:51:29.926Z,61.62
2023-05-06T05:52:32.925Z,61.61
2023-05-06T05:53:36.386Z,61.37
2023-05-06T05:54:39.928Z,61.42
2023-05-06T05:55:43.188Z,61.38
2023-05-06T05:56:46.508Z,61.39
2023-05-06T05:57:49.947Z,61.42
2023-05-06T05:58:53.691Z,61.51
2023-05-06T05:59:56.689Z,61.57
2023-05-06T06:01:00.020Z,61.67
2023-05-06T06:02:03.386Z,61.69
2023-05-06T06:03:06.541Z,61.58
2023-05-06T06:04:09.859Z,61.46
2023-05-06T06:05:12.807Z,61.75
2023-05-06T06:06:15.722Z,61.84
2023-05-06T06:07:19.436Z,61.86
2023-05-06T06:08:22.856Z,61.68
2023-05-06T06:09:26.672Z,61.76
2023-05-06T06:10:29.676Z,61.72
2023-05-06T06:11:32.714Z,61.77
2023-05-06T06:12:36.310Z,61.55
2023-05-06T06:13:39.973Z,61.33
2023-05-06T06:14:48.512Z,61.63
2023-05-06T06:15:53.501Z,61.58
2023-05-06T06:16:56.619Z,61.40
2023-05-06T06:17:59.671Z,61.39
2023-05-06T06:19:03.281Z,61.62
2023-05-06T06:20:08.392Z,61.55
2023-05-06T06:21:11.368Z,61.48
2023-05-06T06:22:14.974Z,61.62
2023-05-06T06:23:17.913Z,61.43
2023-05-06T06:24:21.172Z,61.17
2023-05-06T06:25:24.079Z,61.16
2023-05-06T06:26:26.965Z,60.98
2023-05-06T06:27:29.984Z,61.01
2023-05-06T06:28:33.487Z,61.15
2023-05-06T06:29:36.543Z,60.77
2023-05-06T06:30:39.408Z,60.83
2023-05-06T06:31:42.283Z,60.86
2023-05-06T06:32:51.004Z,60.90
2023-05-06T06:33:53.878Z,60.72
2023-05-06T06:34:56.817Z,60.90
2023-05-06T06:35:59.730Z,60.57
2023-05-06T06:37:02.600Z,60.41
2023-05-06T06:38:05.480Z,60.24
2023-05-06T06:39:08.674Z,59.84
2023-05-06T06:40:12.522Z,60.04
2023-05-06T06:41:15.555Z,60.12
2023-05-06T06:42:18.392Z,60.11
2023-05-06T06:43:25.443Z,59.85
2023-05-06T06:44:31.181Z,59.33
2023-05-06T06:45:34.471Z,59.69
2023-05-06T06:46:37.505Z,59.57
2023-05-06T06:47:41.098Z,59.81
2023-05-06T06:48:44.088Z,59.22
2023-05-06T06:49:47.064Z,59.43
2023-05-06T06:50:49.928Z,59.68
2023-05-06T06:51:52.986Z,59.55
2023-05-06T06:52:55.877Z,59.41
2023-05-06T06:53:58.695Z,59.57
2023-05-06T06:55:02.049Z,59.83
2023-05-06T06:56:10.465Z,60.02
2023-05-06T06:57:13.365Z,59.81
2023-05-06T06:58:16.426Z,59.84
2023-05-06T06:59:19.475Z,59.68
2023-05-06T07:00:22.347Z,59.79
2023-05-06T07:01:25.334Z,59.90
2023-05-06T07:02:28.896Z,59.87
2023-05-06T07:03:32.111Z,59.84
2023-05-06T07:04:35.018Z,59.76
2023-05-06T07:05:37.990Z,59.81
2023-05-06T07:06:40.882Z,59.56
2023-05-06T07:07:43.838Z,59.08
2023-05-06T07:08:46.682Z,59.07
2023-05-06T07:09:49.541Z,59.24
2023-05-06T07:10:52.439Z,59.42
2023-05-06T07:11:55.308Z,59.34
2023-05-06T07:12:58.502Z,59.12
2023-05-06T07:14:01.602Z,59.16
2023-05-06T07:15:06.966Z,59.15
2023-05-06T07:16:10.377Z,59.06
2023-05-06T07:17:13.433Z,58.83
2023-05-06T07:18:16.770Z,58.61
2023-05-06T07:19:19.709Z,58.48
2023-05-06T07:20:22.579Z,58.12
2023-05-06T07:21:25.730Z,58.07
2023-05-06T07:22:29.231Z,58.47
2023-05-06T07:23:32.305Z,58.44
2023-05-06T07:24:35.286Z,58.49
2023-05-06T07:25:38.251Z,58.64
2023-05-06T07:26:41.094Z,58.24
2023-05-06T07:27:43.947Z,58.56
2023-05-06T07:28:46.820Z,58.53
2023-05-06T07:29:50.192Z,58.52
2023-05-06T07:30:53.357Z,58.43
2023-05-06T07:31:56.379Z,58.41
2023-05-06T07:32:59.574Z,58.38
2023-05-06T07:34:02.602Z,58.12
2023-05-06T07:35:05.841Z,57.94
2023-05-06T07:36:08.789Z,57.96
2023-05-06T07:37:12.117Z,57.83
2023-05-06T07:38:14.962Z,57.83
2023-05-06T07:39:17.894Z,57.30
2023-05-06T07:40:20.800Z,57.38
2023-05-06T07:41:23.718Z,57.26
2023-05-06T07:42:26.638Z,57.53
2023-05-06T07:43:29.491Z,57.49
2023-05-06T07:44:32.563Z,57.64
2023-05-06T07:45:35.992Z,57.52
2023-05-06T07:46:38.995Z,57.51
2023-05-06T07:47:42.085Z,57.52
2023-05-06T07:48:45.060Z,57.42
2023-05-06T07:49:47.963Z,57.28
2023-05-06T07:50:50.940Z,57.28
2023-05-06T07:51:53.790Z,57.41
2023-05-06T07:52:56.810Z,57.04
2023-05-06T07:53:59.704Z,56.92
2023-05-06T07:55:02.648Z,56.93
2023-05-06T07:56:05.946Z,56.71
2023-05-06T07:57:09.339Z,57.00
2023-05-06T07:58:12.362Z,56.96
2023-05-06T07:59:15.243Z,56.86
2023-05-06T08:00:18.523Z,57.00
2023-05-06T08:01:21.499Z,56.83
2023-05-06T08:02:25.119Z,56.70
2023-05-06T08:03:28.233Z,57.03
2023-05-06T08:04:31.361Z,56.96
2023-05-06T08:05:34.264Z,56.86
2023-05-06T08:06:37.103Z,56.84
2023-05-06T08:07:41.754Z,56.86
2023-05-06T08:08:46.590Z,56.67
2023-05-06T08:09:50.434Z,56.35
2023-05-06T08:10:54.661Z,56.07
2023-05-06T08:11:58.336Z,56.27
2023-05-06T08:13:01.357Z,56.25
2023-05-06T08:14:04.408Z,56.33
2023-05-06T08:15:08.127Z,56.35
2023-05-06T08:16:11.179Z,56.33
2023-05-06T08:17:14.329Z,55.98
2023-05-06T08:18:22.375Z,55.90
2023-05-06T08:19:26.869Z,55.82
2023-05-06T08:20:30.423Z,55.93
2023-05-06T08:21:33.267Z,55.78
2023-05-06T08:22:36.261Z,55.90
2023-05-06T08:23:39.186Z,56.18
2023-05-06T08:24:42.158Z,56.04
2023-05-06T08:25:45.185Z,55.99
2023-05-06T08:26:48.066Z,56.07
2023-05-06T08:27:50.986Z,56.15
2023-05-06T08:28:55.889Z,56.21
2023-05-06T08:29:58.769Z,56.26
2023-05-06T08:31:01.666Z,56.44
2023-05-06T08:32:04.765Z,56.58
2023-05-06T08:33:07.757Z,56.68
2023-05-06T08:34:10.663Z,56.64
2023-05-06T08:35:14.129Z,56.60
2023-05-06T08:36:17.019Z,56.63
2023-05-06T08:37:19.877Z,56.68
2023-05-06T08:38:22.910Z,56.29
2023-05-06T08:39:25.999Z,56.11
2023-05-06T08:40:32.685Z,55.98
2023-05-06T08:41:38.430Z,55.92
2023-05-06T08:42:42.056Z,55.97
2023-05-06T08:43:47.037Z,55.86
2023-05-06T08:44:51.945Z,55.87
2023-05-06T08:45:55.202Z,56.09
2023-05-06T08:46:58.760Z,55.70
2023-05-06T08:48:01.754Z,55.67
2023-05-06T08:49:04.736Z,55.28
2023-05-06T08:50:08.862Z,55.51
2023-05-06T08:51:14.328Z,55.62
2023-05-06T08:52:18.459Z,54.96
2023-05-06T08:53:21.791Z,55.45
2023-05-06T08:54:26.641Z,55.36
2023-05-06T08:55:30.927Z,55.16
2023-05-06T08:56:36.219Z,55.17
2023-05-06T08:57:40.591Z,55.34
2023-05-06T08:58:46.782Z,55.63
2023-05-06T08:59:49.737Z,55.60
2023-05-06T09:00:52.918Z,55.79
2023-05-06T09:01:56.021Z,55.26
2023-05-06T09:02:59.026Z,55.60
2023-05-06T09:04:04.037Z,55.88
2023-05-06T09:05:09.924Z,55.94
2023-05-06T09:06:13.004Z,56.07
2023-05-06T09:07:16.454Z,56.07
2023-05-06T09:08:19.350Z,56.33
2023-05-06T09:09:22.214Z,56.18
2023-05-06T09:10:31.213Z,56.15
2023-05-06T09:11:38.933Z,56.01
2023-05-06T09:12:41.861Z,55.58
2023-05-06T09:13:44.761Z,55.65
2023-05-06T09:14:51.358Z,55.81
2023-05-06T09:15:55.223Z,55.98
2023-05-06T09:16:58.274Z,55.69
2023-05-06T09:18:01.314Z,56.06
2023-05-06T09:19:04.498Z,55.63
2023-05-06T09:20:11.623Z,55.70
2023-05-06T09:21:14.558Z,56.01
2023-05-06T09:22:17.475Z,56.33
2023-05-06T09:23:22.498Z,56.38
2023-05-06T09:24:25.871Z,56.00
2023-05-06T09:25:29.761Z,55.65
2023-05-06T09:26:34.743Z,55.39
2023-05-06T09:27:37.836Z,56.07
2023-05-06T09:28:47.169Z,55.66
2023-05-06T09:30:07.031Z,55.82
2023-05-06T09:31:09.986Z,56.12
2023-05-06T09:32:14.645Z,55.99
2023-05-06T09:33:17.498Z,55.65
2023-05-06T09:34:21.249Z,55.55
2023-05-06T09:35:28.626Z,55.40
2023-05-06T09:36:31.917Z,55.08
2023-05-06T09:37:34.839Z,55.85
2023-05-06T09:38:37.682Z,56.35
2023-05-06T09:39:40.940Z,56.58
2023-05-06T09:40:43.871Z,56.57
2023-05-06T09:41:46.888Z,56.65
2023-05-06T09:42:51.742Z,56.37
2023-05-06T09:43:56.740Z,56.48
2023-05-06T09:45:02.207Z,56.75
2023-05-06T09:46:06.459Z,56.76
2023-05-06T09:47:10.607Z,56.58
2023-05-06T09:48:15.160Z,56.81
2023-05-06T09:49:18.104Z,56.83
2023-05-06T09:50:22.501Z,56.83
2023-05-06T09:51:27.923Z,56.94
2023-05-06T09:52:31.745Z,57.22
2023-05-06T09:53:39.251Z,57.14
2023-05-06T09:54:43.050Z,56.98
2023-05-06T09:55:46.592Z,56.91
2023-05-06T09:56:50.774Z,57.04
2023-05-06T09:57:54.741Z,57.02
2023-05-06T09:58:58.777Z,57.19
2023-05-06T10:00:03.028Z,57.19
2023-05-06T10:01:22.293Z,57.22
2023-05-06T10:02:32.321Z,57.36
2023-05-06T10:03:36.534Z,57.70
2023-05-06T10:04:43.830Z,57.67
2023-05-06T10:05:47.213Z,57.75
2023-05-06T10:06:51.888Z,57.50
2023-05-06T10:07:57.356Z,57.11
2023-05-06T10:09:01.265Z,57.25
2023-05-06T10:10:05.334Z,57.19
2023-05-06T10:11:08.860Z,57.26
2023-05-06T10:12:12.680Z,57.10
2023-05-06T10:13:16.627Z,56.87
2023-05-06T10:14:19.940Z,57.17
2023-05-06T10:15:26.032Z,56.96
2023-05-06T10:16:29.683Z,56.92
2023-05-06T10:17:34.647Z,56.72
2023-05-06T10:18:38.946Z,56.83
2023-05-06T10:19:50.593Z,57.07
2023-05-06T10:20:55.405Z,56.97
2023-05-06T10:22:08.527Z,56.87
2023-05-06T10:23:45.073Z,56.89
2023-05-06T10:25:06.378Z,56.71
2023-05-06T10:26:11.945Z,56.60
2023-05-06T10:27:18.629Z,56.66
2023-05-06T10:28:23.001Z,56.39
2023-05-06T10:29:30.693Z,56.54
2023-05-06T10:30:38.753Z,56.55
2023-05-06T10:31:54.727Z,56.62
2023-05-06T10:32:59.716Z,56.51
2023-05-06T10:34:04.838Z,56.54
2023-05-06T10:35:13.810Z,56.65
2023-05-06T10:36:22.720Z,56.79
2023-05-06T10:37:28.612Z,56.52
2023-05-06T10:38:36.316Z,56.42
2023-05-06T10:39:42.369Z,56.42
2023-05-06T10:40:46.810Z,56.32
2023-05-06T10:41:49.701Z,56.24
2023-05-06T10:42:52.570Z,56.03
2023-05-06T10:43:57.359Z,55.99
2023-05-06T10:45:03.876Z,56.13
2023-05-06T10:46:09.441Z,56.32
2023-05-06T10:47:12.365Z,56.28
2023-05-06T10:48:15.217Z,56.44
2023-05-06T10:49:20.040Z,56.24
2023-05-06T10:50:27.432Z,56.33
2023-05-06T10:51:33.824Z,56.48
2023-05-06T10:52:46.851Z,56.36
2023-05-06T10:53:55.733Z,56.31
2023-05-06T10:55:02.601Z,56.40
2023-05-06T10:56:09.468Z,56.32
2023-05-06T10:57:12.413Z,56.34
2023-05-06T10:58:16.377Z,56.39
2023-05-06T10:59:24.616Z,56.19
2023-05-06T11:00:31.272Z,55.94
2023-05-06T11:01:36.137Z,56.09
2023-05-06T11:02:40.669Z,55.93
2023-05-06T11:03:44.184Z,55.95
2023-05-06T11:04:52.153Z,55.95
2023-05-06T11:05:55.297Z,55.71
2023-05-06T11:07:11.880Z,55.94
2023-05-06T11:08:15.205Z,55.95
2023-05-06T11:09:27.318Z,56.06
2023-05-06T11:10:34.265Z,55.78
2023-05-06T11:12:05.920Z,55.70
2023-05-06T11:13:29.051Z,55.44
2023-05-06T11:14:35.573Z,55.61
2023-05-06T11:15:40.504Z,55.77
2023-05-06T11:16:50.654Z,55.78
2023-05-06T11:17:55.880Z,55.84
2023-05-06T11:18:59.309Z,55.72
2023-05-06T11:20:25.469Z,55.78
2023-05-06T11:21:31.159Z,55.86
2023-05-06T11:22:41.136Z,55.98
2023-05-06T11:23:47.016Z,56.22
2023-05-06T11:24:50.088Z,56.33
2023-05-06T11:25:53.673Z,56.69
2023-05-06T11:26:59.094Z,56.38
2023-05-06T11:28:07.286Z,56.66
2023-05-06T11:29:10.302Z,56.77
2023-05-06T11:30:15.126Z,56.47
2023-05-06T11:31:18.191Z,56.30
2023-05-06T11:32:25.523Z,56.76
2023-05-06T11:33:36.205Z,57.16
2023-05-06T11:34:39.166Z,57.14
2023-05-06T11:35:42.074Z,57.23
2023-05-06T11:36:47.092Z,57.50
2023-05-06T11:37:52.228Z,57.52
2023-05-06T11:38:56.510Z,57.47
2023-05-06T11:39:59.384Z,57.63
2023-05-06T11:41:02.295Z,57.94
2023-05-06T11:42:07.212Z,57.98
2023-05-06T11:43:14.147Z,58.33
2023-05-06T11:44:34.671Z,58.48
2023-05-06T11:45:41.780Z,58.67
2023-05-06T11:46:44.851Z,58.92
2023-05-06T11:47:47.810Z,59.06
2023-05-06T11:48:51.101Z,59.54
2023-05-06T11:49:55.556Z,59.73
2023-05-06T11:50:58.451Z,59.64
2023-05-06T11:52:01.448Z,59.96
2023-05-06T11:53:04.350Z,60.16
2023-05-06T11:54:11.054Z,60.17
2023-05-06T11:55:14.296Z,60.30
2023-05-06T11:56:17.755Z,60.60
2023-05-06T11:57:21.073Z,61.02
2023-05-06T11:58:26.487Z,60.96
2023-05-06T11:59:34.407Z,61.63
2023-05-06T12:00:37.395Z,61.82
2023-05-06T12:01:44.635Z,61.71
2023-05-06T12:02:47.466Z,62.10
2023-05-06T12:03:54.827Z,62.09
2023-05-06T12:04:58.616Z,62.49
2023-05-06T12:06:01.768Z,62.68
2023-05-06T12:07:06.381Z,62.86
2023-05-06T12:08:23.462Z,63.00
2023-05-06T12:09:30.426Z,62.87
2023-05-06T12:10:33.965Z,62.79
2023-05-06T12:11:37.978Z,62.90
2023-05-06T12:12:41.026Z,62.98
2023-05-06T12:13:44.307Z,63.09
2023-05-06T12:14:49.291Z,63.06
2023-05-06T12:15:54.698Z,63.27
2023-05-06T12:16:58.278Z,63.54
2023-05-06T12:18:02.258Z,63.69
2023-05-06T12:19:05.919Z,64.00
2023-05-06T12:20:11.092Z,64.22
2023-05-06T12:21:14.491Z,64.50
2023-05-06T12:22:25.000Z,64.83
2023-05-06T12:23:27.914Z,65.18
2023-05-06T12:24:30.780Z,65.00
2023-05-06T12:25:33.683Z,65.28
2023-05-06T12:26:47.973Z,65.42
2023-05-06T12:27:50.796Z,65.63
2023-05-06T12:29:11.266Z,65.90
2023-05-06T12:30:14.340Z,66.24
2023-05-06T12:31:24.450Z,66.49
2023-05-06T12:32:27.821Z,66.43
2023-05-06T12:33:45.396Z,66.28
2023-05-06T12:34:48.334Z,66.71
2023-05-06T12:35:57.090Z,66.68
2023-05-06T12:36:59.978Z,66.93
2023-05-06T12:38:09.765Z,67.22
2023-05-06T12:39:12.930Z,67.24
2023-05-06T12:40:18.859Z,67.25
2023-05-06T12:41:22.502Z,67.83
2023-05-06T12:42:25.601Z,67.94
2023-05-06T12:43:30.859Z,68.15
2023-05-06T12:44:38.328Z,68.35
2023-05-06T12:45:41.446Z,68.20
2023-05-06T12:46:53.440Z,68.47
2023-05-06T12:48:02.361Z,68.70
2023-05-06T12:49:05.635Z,68.88
2023-05-06T12:50:09.118Z,68.88
2023-05-06T12:51:19.722Z,68.99
2023-05-06T12:52:24.090Z,69.27
2023-05-06T12:53:35.572Z,69.53
2023-05-06T12:54:38.925Z,69.60
2023-05-06T12:55:42.363Z,69.48
2023-05-06T12:56:46.039Z,69.50
2023-05-06T12:57:49.369Z,69.67
2023-05-06T12:58:59.905Z,69.87
2023-05-06T13:00:02.999Z,70.13
2023-05-06T13:01:07.763Z,70.22
2023-05-06T13:02:11.158Z,70.21
2023-05-06T13:03:14.302Z,70.34
2023-05-06T13:04:17.211Z,70.36
2023-05-06T13:05:20.289Z,70.62
2023-05-06T13:06:23.206Z,70.69
2023-05-06T13:07:26.115Z,70.68
2023-05-06T13:08:29.656Z,70.57
2023-05-06T13:09:32.915Z,70.71
2023-05-06T13:10:35.785Z,70.66
2023-05-06T13:11:38.623Z,70.94
2023-05-06T13:12:41.645Z,70.86
2023-05-06T13:13:44.632Z,71.22
2023-05-06T13:14:47.547Z,70.95
2023-05-06T13:15:52.699Z,70.72
2023-05-06T13:16:56.069Z,71.01
2023-05-06T13:17:58.999Z,70.75
2023-05-06T13:19:03.277Z,70.88
2023-05-06T13:20:07.404Z,70.92
2023-05-06T13:21:10.459Z,71.13
2023-05-06T13:22:13.341Z,71.14
2023-05-06T13:23:16.209Z,71.22
2023-05-06T13:24:19.288Z,71.37
2023-05-06T13:25:22.376Z,71.46
2023-05-06T13:26:25.307Z,71.73
2023-05-06T13:27:31.644Z,71.55
2023-05-06T13:28:36.720Z,71.36
2023-05-06T13:29:39.706Z,71.71
2023-05-06T13:30:42.598Z,71.94
2023-05-06T13:31:45.461Z,72.07
2023-05-06T13:32:48.831Z,72.12
2023-05-06T13:33:51.725Z,72.39
2023-05-06T13:34:54.557Z,72.43
2023-05-06T13:35:57.647Z,72.32
2023-05-06T13:37:00.678Z,72.36
2023-05-06T13:38:03.548Z,72.44
2023-05-06T13:39:06.401Z,72.45
2023-05-06T13:40:10.097Z,72.69
2023-05-06T13:41:13.159Z,72.83
2023-05-06T13:42:16.840Z,72.92
2023-05-06T13:43:20.842Z,73.11
2023-05-06T13:44:24.782Z,73.07
2023-05-06T13:45:27.643Z,72.98
2023-05-06T13:46:31.438Z,72.95
2023-05-06T13:47:34.364Z,72.86
2023-05-06T13:48:37.276Z,72.79
2023-05-06T13:49:40.176Z,73.21
2023-05-06T13:50:44.192Z,73.37
2023-05-06T13:51:47.070Z,73.44
2023-05-06T13:52:49.949Z,73.42